createdAt,value
2018-06-02T00:00:21.675Z,57.00
2018-06-02T00:01:21.732Z,57.00
2018-06-02T00:02:21.666Z,57.00
2018-06-02T00:03:21.736Z,57.00
2018-06-02T00:04:21.666Z,57.00
2018-06-02T00:05:21.826Z,57.00
2018-06-02T00:06:21.733Z,57.00
2018-06-02T00:07:21.668Z,57.00
2018-06-02T00:08:21.774Z,57.00
2018-06-02T00:09:21.707Z,65.10
2018-06-02T00:10:21.706Z,65.10
2018-06-02T00:11:21.818Z,65.10
2018-06-02T00:12:21.664Z,65.10
2018-06-02T00:13:21.710Z,65.10
2018-06-02T00:14:21.723Z,65.10
2018-06-02T00:15:21.775Z,65.10
2018-06-02T00:16:21.753Z,65.10
2018-06-02T00:17:21.757Z,65.10
2018-06-02T00:18:21.683Z,65.10
2018-06-02T00:19:21.681Z,60.40
2018-06-02T00:20:21.679Z,60.40
2018-06-02T00:21:21.750Z,60.40
2018-06-02T00:22:21.683Z,60.40
2018-06-02T00:23:21.686Z,60.40
2018-06-02T00:24:21.687Z,60.40
2018-06-02T00:25:21.684Z,60.40
2018-06-02T00:26:21.690Z,60.40
2018-06-02T00:27:21.684Z,60.40
2018-06-02T00:28:21.686Z,60.40
2018-06-02T00:29:21.684Z,57.00
2018-06-02T00:30:21.750Z,57.00
2018-06-02T00:31:21.678Z,57.00
2018-06-02T00:32:21.752Z,57.00
2018-06-02T00:33:21.693Z,57.00
2018-06-02T00:34:21.751Z,57.00
2018-06-02T00:35:21.682Z,57.00
2018-06-02T00:36:21.678Z,57.00
2018-06-02T00:37:21.757Z,57.00
2018-06-02T00:38:21.687Z,57.00
2018-06-02T00:39:21.692Z,52.70
2018-06-02T00:40:21.694Z,52.70
2018-06-02T00:41:21.695Z,52.70
2018-06-02T00:42:21.773Z,52.70
2018-06-02T00:43:21.776Z,52.70
2018-06-02T00:44:21.696Z,52.70
2018-06-02T00:45:21.828Z,52.70
2018-06-02T00:46:21.773Z,52.70
2018-06-02T00:47:21.703Z,52.70
2018-06-02T00:48:21.793Z,52.70
2018-06-02T00:49:21.685Z,50.30
2018-06-02T00:50:21.754Z,50.30
2018-06-02T00:51:21.812Z,50.30
2018-06-02T00:52:21.697Z,50.30
2018-06-02T00:53:21.807Z,50.30
2018-06-02T00:54:21.715Z,50.30
2018-06-02T00:55:21.793Z,50.30
2018-06-02T00:56:21.799Z,50.30
2018-06-02T00:57:21.792Z,50.30
2018-06-02T00:58:21.786Z,50.30
2018-06-02T00:59:21.714Z,51.90
2018-06-02T01:00:21.737Z,51.90
2018-06-02T01:01:21.817Z,51.90
2018-06-02T01:02:21.754Z,51.90
2018-06-02T01:03:21.812Z,51.90
2018-06-02T01:04:21.807Z,51.90
2018-06-02T01:05:21.801Z,51.90
2018-06-02T01:06:21.789Z,51.90
2018-06-02T01:07:21.821Z,51.90
2018-06-02T01:08:21.719Z,51.90
2018-06-02T01:09:21.703Z,48.80
2018-06-02T01:10:21.705Z,48.80
2018-06-02T01:11:21.761Z,48.80
2018-06-02T01:12:21.806Z,48.80
2018-06-02T01:13:21.761Z,48.80
2018-06-02T01:14:21.706Z,48.80
2018-06-02T01:15:21.796Z,48.80
2018-06-02T01:16:21.825Z,48.80
2018-06-02T01:17:21.824Z,48.80
2018-06-02T01:18:21.855Z,48.80
2018-06-02T01:19:21.781Z,48.60
2018-06-02T01:20:21.756Z,48.60
2018-06-02T01:21:21.723Z,48.60
2018-06-02T01:22:21.693Z,48.60
2018-06-02T01:23:21.800Z,48.60
2018-06-02T01:24:21.798Z,48.60
2018-06-02T01:25:21.729Z,48.60
2018-06-02T01:26:21.797Z,48.60
2018-06-02T01:27:21.691Z,48.60
2018-06-02T01:28:21.753Z,48.60
2018-06-02T01:29:21.803Z,40.70
2018-06-02T01:30:21.738Z,40.70
2018-06-02T01:31:21.772Z,40.70
2018-06-02T01:32:21.725Z,40.70
2018-06-02T01:33:21.758Z,40.70
2018-06-02T01:34:21.721Z,40.70
2018-06-02T01:35:21.815Z,40.70
2018-06-02T01:36:21.771Z,40.70
2018-06-02T01:37:21.727Z,40.70
2018-06-02T01:38:21.722Z,40.70
2018-06-02T01:39:21.770Z,36.60
2018-06-02T01:40:21.743Z,36.60
2018-06-02T01:41:21.817Z,36.60
2018-06-02T01:42:21.806Z,36.60
2018-06-02T01:43:21.829Z,36.60
2018-06-02T01:44:21.744Z,36.60
2018-06-02T01:45:21.734Z,36.60
2018-06-02T01:46:21.896Z,36.60
2018-06-02T01:47:21.806Z,36.60
2018-06-02T01:48:21.804Z,36.60
2018-06-02T01:49:21.711Z,34.30
2018-06-02T01:50:21.835Z,34.30
2018-06-02T01:51:21.775Z,34.30
2018-06-02T01:52:21.746Z,34.30
2018-06-02T01:53:21.820Z,34.30
2018-06-02T01:54:21.737Z,34.30
2018-06-02T01:55:21.823Z,34.30
2018-06-02T01:56:21.771Z,34.30
2018-06-02T01:57:21.815Z,34.30
2018-06-02T01:58:21.829Z,34.30
2018-06-02T01:59:21.845Z,33.90
2018-06-02T02:00:21.810Z,33.90
2018-06-02T02:01:21.752Z,33.90
2018-06-02T02:02:21.767Z,33.90
2018-06-02T02:03:21.831Z,33.90
2018-06-02T02:04:21.749Z,33.90
2018-06-02T02:05:21.756Z,33.90
2018-06-02T02:06:21.767Z,33.90
2018-06-02T02:07:21.831Z,33.90
2018-06-02T02:08:21.715Z,33.90
2018-06-02T02:09:21.739Z,28.80
2018-06-02T02:10:21.721Z,28.80
2018-06-02T02:11:21.745Z,28.80
2018-06-02T02:12:21.755Z,28.80
2018-06-02T02:13:21.832Z,28.80
2018-06-02T02:14:21.831Z,28.80
2018-06-02T02:15:21.859Z,28.80
2018-06-02T02:16:21.764Z,28.80
2018-06-02T02:17:21.790Z,28.80
2018-06-02T02:18:21.749Z,28.80
2018-06-02T02:19:21.775Z,32.99
2018-06-02T02:20:21.855Z,32.99
2018-06-02T02:21:21.867Z,32.99
2018-06-02T02:22:21.796Z,32.99
2018-06-02T02:23:21.829Z,32.99
2018-06-02T02:24:21.830Z,32.99
2018-06-02T02:25:21.841Z,32.99
2018-06-02T02:26:21.809Z,32.99
2018-06-02T02:27:21.795Z,32.99
2018-06-02T02:28:21.804Z,32.99
2018-06-02T02:29:26.202Z,34.30
2018-06-02T02:30:21.820Z,34.30
2018-06-02T02:31:21.846Z,34.30
2018-06-02T02:32:21.808Z,34.30
2018-06-02T02:33:21.861Z,34.30
2018-06-02T02:34:21.779Z,34.30
2018-06-02T02:35:21.782Z,34.30
2018-06-02T02:36:21.782Z,34.30
2018-06-02T02:37:21.870Z,34.30
2018-06-02T02:38:21.814Z,34.30
2018-06-02T02:39:21.774Z,41.20
2018-06-02T02:40:21.778Z,41.20
2018-06-02T02:41:21.734Z,41.20
2018-06-02T02:42:21.775Z,41.20
2018-06-02T02:43:21.860Z,41.20
2018-06-02T02:44:21.783Z,41.20
2018-06-02T02:45:21.868Z,41.20
2018-06-02T02:46:21.854Z,41.20
2018-06-02T02:47:21.783Z,41.20
2018-06-02T02:48:21.853Z,41.20
2018-06-02T02:49:21.778Z,45.40
2018-06-02T02:50:21.780Z,45.40
2018-06-02T02:51:21.854Z,45.40
2018-06-02T02:52:21.857Z,45.40
2018-06-02T02:53:21.782Z,45.40
2018-06-02T02:54:21.857Z,45.40
2018-06-02T02:55:21.855Z,45.40
2018-06-02T02:56:21.782Z,45.40
2018-06-02T02:57:21.854Z,45.40
2018-06-02T02:58:21.867Z,45.40
2018-06-02T02:59:21.887Z,38.80
2018-06-02T03:00:21.888Z,38.80
2018-06-02T03:01:21.858Z,38.80
2018-06-02T03:02:21.825Z,38.80
2018-06-02T03:03:21.915Z,38.80
2018-06-02T03:04:21.867Z,38.80
2018-06-02T03:05:21.842Z,38.80
2018-06-02T03:06:21.884Z,38.80
2018-06-02T03:07:21.901Z,38.80
2018-06-02T03:08:21.897Z,38.80
2018-06-02T03:09:21.880Z,37.30
2018-06-02T03:10:21.797Z,37.30
2018-06-02T03:11:21.752Z,37.30
2018-06-02T03:12:21.809Z,37.30
2018-06-02T03:13:21.824Z,37.30
2018-06-02T03:14:21.869Z,37.30
2018-06-02T03:15:21.798Z,37.30
2018-06-02T03:16:21.870Z,37.30
2018-06-02T03:17:21.800Z,37.30
2018-06-02T03:18:21.872Z,37.30
2018-06-02T03:19:21.793Z,36.70
2018-06-02T03:20:21.842Z,36.70
2018-06-02T03:21:21.911Z,36.70
2018-06-02T03:22:21.905Z,36.70
2018-06-02T03:24:21.887Z,36.70
2018-06-02T03:25:21.902Z,36.70
2018-06-02T03:26:21.778Z,36.70
2018-06-02T03:27:21.870Z,36.70
2018-06-02T03:28:21.800Z,36.70
2018-06-02T03:29:21.898Z,36.60
2018-06-02T03:30:21.880Z,36.60
2018-06-02T03:31:21.806Z,36.60
2018-06-02T03:32:21.866Z,36.60
2018-06-02T03:33:21.809Z,36.60
2018-06-02T03:34:21.883Z,36.60
2018-06-02T03:35:21.883Z,36.60
2018-06-02T03:36:21.885Z,36.60
2018-06-02T03:37:21.812Z,36.60
2018-06-02T03:38:21.815Z,36.60
2018-06-02T03:39:21.879Z,35.99
2018-06-02T03:40:21.787Z,35.99
2018-06-02T03:41:21.921Z,35.99
2018-06-02T03:42:21.858Z,35.99
2018-06-02T03:43:21.895Z,35.99
2018-06-02T03:44:21.906Z,35.99
2018-06-02T03:45:21.807Z,35.99
2018-06-02T03:46:21.922Z,35.99
2018-06-02T03:47:21.868Z,35.99
2018-06-02T03:48:21.860Z,35.99
2018-06-02T03:49:21.910Z,33.60
2018-06-02T03:50:21.850Z,33.60
2018-06-02T03:51:21.822Z,33.60
2018-06-02T03:52:21.820Z,33.60
2018-06-02T03:53:21.896Z,33.60
2018-06-02T03:54:21.827Z,33.60
2018-06-02T03:55:21.828Z,33.60
2018-06-02T03:56:21.895Z,33.60
2018-06-02T03:57:21.901Z,33.60
2018-06-02T03:58:21.825Z,33.60
2018-06-02T03:59:21.830Z,36.00
2018-06-02T04:00:21.878Z,36.00
2018-06-02T04:01:21.879Z,36.00
2018-06-02T04:02:21.831Z,36.00
2018-06-02T04:03:21.821Z,36.00
2018-06-02T04:04:21.887Z,36.00
2018-06-02T04:05:21.826Z,36.00
2018-06-02T04:06:21.878Z,36.00
2018-06-02T04:07:21.872Z,36.00
2018-06-02T04:08:21.796Z,36.00
2018-06-02T04:09:21.900Z,36.60
2018-06-02T04:10:21.874Z,36.60
2018-06-02T04:11:21.897Z,36.60
2018-06-02T04:12:21.845Z,36.60
2018-06-02T04:13:21.954Z,36.60
2018-06-02T04:14:21.840Z,36.60
2018-06-02T04:15:21.843Z,36.60
2018-06-02T04:16:21.825Z,36.60
2018-06-02T04:17:21.810Z,36.60
2018-06-02T04:18:21.885Z,36.60
2018-06-02T04:19:21.932Z,30.50
2018-06-02T04:20:21.839Z,30.50
2018-06-02T04:21:21.923Z,30.50
2018-06-02T04:22:21.910Z,30.50
2018-06-02T04:23:21.909Z,30.50
2018-06-02T04:24:21.840Z,30.50
2018-06-02T04:25:21.910Z,30.50
2018-06-02T04:26:21.843Z,30.50
2018-06-02T04:27:21.910Z,30.50
2018-06-02T04:28:21.846Z,30.50
2018-06-02T04:29:21.906Z,27.00
2018-06-02T04:30:21.830Z,27.00
2018-06-02T04:31:21.900Z,27.00
2018-06-02T04:32:21.820Z,27.00
2018-06-02T04:33:21.822Z,27.00
2018-06-02T04:34:21.834Z,27.00
2018-06-02T04:35:21.821Z,27.00
2018-06-02T04:36:21.909Z,27.00
2018-06-02T04:37:21.909Z,27.00
2018-06-02T04:38:21.926Z,27.00
2018-06-02T04:39:21.893Z,23.70
2018-06-02T04:40:21.925Z,23.70
2018-06-02T04:41:21.979Z,23.70
2018-06-02T04:42:21.942Z,23.70
2018-06-02T04:43:21.891Z,23.70
2018-06-02T04:44:21.947Z,23.70
2018-06-02T04:45:21.904Z,23.70
2018-06-02T04:46:21.941Z,23.70
2018-06-02T04:47:21.894Z,23.70
2018-06-02T04:48:21.894Z,23.70
2018-06-02T04:49:21.906Z,25.40
2018-06-02T04:50:21.924Z,25.40
2018-06-02T04:51:21.960Z,25.40
2018-06-02T04:52:21.850Z,25.40
2018-06-02T04:53:21.874Z,25.40
2018-06-02T04:54:21.963Z,25.40
2018-06-02T04:55:21.849Z,25.40
2018-06-02T04:56:21.894Z,25.40
2018-06-02T04:57:21.931Z,25.40
2018-06-02T04:58:21.990Z,25.40
2018-06-02T04:59:21.849Z,25.40
2018-06-02T05:00:21.877Z,23.50
2018-06-02T05:01:21.910Z,23.50
2018-06-02T05:02:21.838Z,23.50
2018-06-02T05:03:21.964Z,23.50
2018-06-02T05:04:21.864Z,23.50
2018-06-02T05:05:21.877Z,23.50
2018-06-02T05:06:21.941Z,23.50
2018-06-02T05:07:21.839Z,23.50
2018-06-02T05:08:21.966Z,23.50
2018-06-02T05:09:21.877Z,23.50
2018-06-02T05:10:21.941Z,25.10
2018-06-02T05:11:21.876Z,25.10
2018-06-02T05:12:21.943Z,25.10
2018-06-02T05:13:21.944Z,25.10
2018-06-02T05:14:21.947Z,25.10
2018-06-02T05:15:21.878Z,25.10
2018-06-02T05:16:21.947Z,25.10
2018-06-02T05:17:21.950Z,25.10
2018-06-02T05:18:21.879Z,25.10
2018-06-02T05:19:21.890Z,25.10
2018-06-02T05:20:21.947Z,24.00
2018-06-02T05:21:21.949Z,24.00
2018-06-02T05:22:21.950Z,24.00
2018-06-02T05:23:21.983Z,24.00
2018-06-02T05:24:21.955Z,24.00
2018-06-02T05:25:21.952Z,24.00
2018-06-02T05:26:21.890Z,24.00
2018-06-02T05:27:21.954Z,24.00
2018-06-02T05:28:21.890Z,24.00
2018-06-02T05:29:21.884Z,24.00
2018-06-02T05:30:21.958Z,30.30
2018-06-02T05:31:21.900Z,30.30
2018-06-02T05:32:21.981Z,30.30
2018-06-02T05:33:21.911Z,30.30
2018-06-02T05:34:21.959Z,30.30
2018-06-02T05:35:22.002Z,30.30
2018-06-02T05:36:21.960Z,30.30
2018-06-02T05:37:21.894Z,30.30
2018-06-02T05:38:21.969Z,30.30
2018-06-02T05:39:21.962Z,30.30
2018-06-02T05:40:21.961Z,31.40
2018-06-02T05:41:21.972Z,31.40
2018-06-02T05:42:21.996Z,31.40
2018-06-02T05:43:21.937Z,31.40
2018-06-02T05:44:21.930Z,31.40
2018-06-02T05:45:21.947Z,31.40
2018-06-02T05:46:21.923Z,31.40
2018-06-02T05:47:21.930Z,31.40
2018-06-02T05:48:21.893Z,31.40
2018-06-02T05:49:21.965Z,31.40
2018-06-02T05:50:21.974Z,26.30
2018-06-02T05:51:21.978Z,26.30
2018-06-02T05:52:21.998Z,26.30
2018-06-02T05:53:21.968Z,26.30
2018-06-02T05:54:21.973Z,26.30
2018-06-02T05:55:21.947Z,26.30
2018-06-02T05:56:21.925Z,26.30
2018-06-02T05:57:21.953Z,26.30
2018-06-02T05:58:21.974Z,26.30
2018-06-02T05:59:21.989Z,26.30
2018-06-02T06:00:21.894Z,25.80
2018-06-02T06:01:22.000Z,25.80
2018-06-02T06:02:21.974Z,25.80
2018-06-02T06:03:21.883Z,25.80
2018-06-02T06:04:22.008Z,25.80
2018-06-02T06:05:21.997Z,25.80
2018-06-02T06:06:21.975Z,25.80
2018-06-02T06:07:22.000Z,25.80
2018-06-02T06:08:21.949Z,25.80
2018-06-02T06:09:21.900Z,25.80
2018-06-02T06:10:22.011Z,25.40
2018-06-02T06:11:21.935Z,25.40
2018-06-02T06:12:21.899Z,25.40
2018-06-02T06:13:21.981Z,25.40
2018-06-02T06:14:21.964Z,25.40
2018-06-02T06:15:21.958Z,25.40
2018-06-02T06:16:22.002Z,25.40
2018-06-02T06:17:21.967Z,25.40
2018-06-02T06:18:21.984Z,25.40
2018-06-02T06:19:21.925Z,25.40
2018-06-02T06:20:21.986Z,28.50
2018-06-02T06:21:21.989Z,28.50
2018-06-02T06:22:21.929Z,28.50
2018-06-02T06:23:21.924Z,28.50
2018-06-02T06:24:21.923Z,28.50
2018-06-02T06:25:21.923Z,28.50
2018-06-02T06:26:21.963Z,28.50
2018-06-02T06:27:21.947Z,28.50
2018-06-02T06:28:21.923Z,28.50
2018-06-02T06:29:21.995Z,28.50
2018-06-02T06:30:21.912Z,28.00
2018-06-02T06:31:21.941Z,28.00
2018-06-02T06:32:21.922Z,28.00
2018-06-02T06:33:22.067Z,28.00
2018-06-02T06:34:21.991Z,28.00
2018-06-02T06:35:21.917Z,28.00
2018-06-02T06:36:21.873Z,28.00
2018-06-02T06:37:21.989Z,28.00
2018-06-02T06:38:21.902Z,28.00
2018-06-02T06:39:21.947Z,28.00
2018-06-02T06:40:22.028Z,24.30
2018-06-02T06:41:22.023Z,24.30
2018-06-02T06:42:22.024Z,24.30
2018-06-02T06:43:22.043Z,24.30
2018-06-02T06:44:22.056Z,24.30
2018-06-02T06:45:21.982Z,24.30
2018-06-02T06:46:22.004Z,24.30
2018-06-02T06:47:21.945Z,24.30
2018-06-02T06:48:21.957Z,24.30
2018-06-02T06:49:22.025Z,24.30
2018-06-02T06:50:21.915Z,25.80
2018-06-02T06:51:21.989Z,25.80
2018-06-02T06:52:22.014Z,25.80
2018-06-02T06:53:22.039Z,25.80
2018-06-02T06:54:22.007Z,25.80
2018-06-02T06:55:22.019Z,25.80
2018-06-02T06:56:22.106Z,25.80
2018-06-02T06:57:21.988Z,25.80
2018-06-02T06:58:21.982Z,25.80
2018-06-02T06:59:22.013Z,25.80
2018-06-02T07:00:21.946Z,27.60
2018-06-02T07:01:22.017Z,27.60
2018-06-02T07:02:21.950Z,27.60
2018-06-02T07:03:21.951Z,27.60
2018-06-02T07:04:21.901Z,27.60
2018-06-02T07:05:21.952Z,27.60
2018-06-02T07:06:22.016Z,27.60
2018-06-02T07:07:21.973Z,27.60
2018-06-02T07:08:22.023Z,27.60
2018-06-02T07:09:21.983Z,27.60
2018-06-02T07:10:21.947Z,27.80
2018-06-02T07:11:22.084Z,27.80
2018-06-02T07:12:21.983Z,27.80
2018-06-02T07:13:22.065Z,27.80
2018-06-02T07:14:22.062Z,27.80
2018-06-02T07:15:22.004Z,27.80
2018-06-02T07:16:22.064Z,27.80
2018-06-02T07:17:22.005Z,27.80
2018-06-02T07:18:21.945Z,27.80
2018-06-02T07:19:22.010Z,27.80
2018-06-02T07:20:22.059Z,28.40
2018-06-02T07:21:21.992Z,28.40
2018-06-02T07:22:22.074Z,28.40
2018-06-02T07:23:22.027Z,28.40
2018-06-02T07:24:22.013Z,28.40
2018-06-02T07:25:21.938Z,28.40
2018-06-02T07:26:22.060Z,28.40
2018-06-02T07:27:22.034Z,28.40
2018-06-02T07:28:22.054Z,28.40
2018-06-02T07:29:22.033Z,28.40
2018-06-02T07:30:21.976Z,29.80
2018-06-02T07:31:22.064Z,29.80
2018-06-02T07:32:22.065Z,29.80
2018-06-02T07:33:21.952Z,29.80
2018-06-02T07:34:22.079Z,29.80
2018-06-02T07:35:22.063Z,29.80
2018-06-02T07:36:21.956Z,29.80
2018-06-02T07:37:21.979Z,29.80
2018-06-02T07:38:21.941Z,29.80
2018-06-02T07:39:22.059Z,29.80
2018-06-02T07:40:22.059Z,28.60
2018-06-02T07:41:21.975Z,28.60
2018-06-02T07:42:21.979Z,28.60
2018-06-02T07:43:22.045Z,28.60
2018-06-02T07:44:22.067Z,28.60
2018-06-02T07:45:22.046Z,28.60
2018-06-02T07:46:21.977Z,28.60
2018-06-02T07:47:22.049Z,28.60
2018-06-02T07:48:22.047Z,28.60
2018-06-02T07:49:22.049Z,28.60
2018-06-02T07:50:22.049Z,25.99
2018-06-02T07:51:22.051Z,25.99
2018-06-02T07:52:22.049Z,25.99
2018-06-02T07:53:21.983Z,25.99
2018-06-02T07:54:22.052Z,25.99
2018-06-02T07:55:22.057Z,25.99
2018-06-02T07:56:21.980Z,25.99
2018-06-02T07:57:21.950Z,25.99
2018-06-02T07:58:21.983Z,25.99
2018-06-02T07:59:22.094Z,25.99
2018-06-02T08:00:22.054Z,25.60
2018-06-02T08:01:22.030Z,25.60
2018-06-02T08:02:22.059Z,25.60
2018-06-02T08:03:22.057Z,25.60
2018-06-02T08:04:21.988Z,25.60
2018-06-02T08:05:22.065Z,25.60
2018-06-02T08:06:22.061Z,25.60
2018-06-02T08:07:22.064Z,25.60
2018-06-02T08:08:22.000Z,25.60
2018-06-02T08:09:22.061Z,25.60
2018-06-02T08:10:21.970Z,25.00
2018-06-02T08:11:22.055Z,25.00
2018-06-02T08:12:21.986Z,25.00
2018-06-02T08:13:22.058Z,25.00
2018-06-02T08:14:22.057Z,25.00
2018-06-02T08:15:22.056Z,25.00
2018-06-02T08:16:22.064Z,25.00
2018-06-02T08:17:22.065Z,25.00
2018-06-02T08:18:21.987Z,25.00
2018-06-02T08:19:22.064Z,25.00
2018-06-02T08:20:22.070Z,23.20
2018-06-02T08:21:22.044Z,23.20
2018-06-02T08:22:22.047Z,23.20
2018-06-02T08:23:22.128Z,23.20
2018-06-02T08:24:22.105Z,23.20
2018-06-02T08:25:22.070Z,23.20
2018-06-02T08:26:22.042Z,23.20
2018-06-02T08:27:22.008Z,23.20
2018-06-02T08:28:22.079Z,23.20
2018-06-02T08:29:22.010Z,23.20
2018-06-02T08:30:22.110Z,20.30
2018-06-02T08:31:22.011Z,20.30
2018-06-02T08:32:22.077Z,20.30
2018-06-02T08:33:22.126Z,20.30
2018-06-02T08:34:22.108Z,20.30
2018-06-02T08:35:22.075Z,20.30
2018-06-02T08:36:22.059Z,20.30
2018-06-02T08:37:22.079Z,20.30
2018-06-02T08:38:22.049Z,20.30
2018-06-02T08:39:21.999Z,20.30
2018-06-02T08:40:22.082Z,21.70
2018-06-02T08:41:22.015Z,21.70
2018-06-02T08:42:22.082Z,21.70
2018-06-02T08:43:22.018Z,21.70
2018-06-02T08:44:22.084Z,21.70
2018-06-02T08:45:22.018Z,21.70
2018-06-02T08:46:22.158Z,21.70
2018-06-02T08:47:22.033Z,21.70
2018-06-02T08:48:22.089Z,21.70
2018-06-02T08:49:22.019Z,21.70
2018-06-02T08:50:22.018Z,22.20
2018-06-02T08:51:22.110Z,22.20
2018-06-02T08:52:22.111Z,22.20
2018-06-02T08:53:22.026Z,22.20
2018-06-02T08:54:22.136Z,22.20
2018-06-02T08:55:22.060Z,22.20
2018-06-02T08:56:22.027Z,22.20
2018-06-02T08:57:22.110Z,22.20
2018-06-02T08:58:22.112Z,22.20
2018-06-02T08:59:22.095Z,22.20
2018-06-02T09:00:22.120Z,18.30
2018-06-02T09:01:22.031Z,18.30
2018-06-02T09:02:21.996Z,18.30
2018-06-02T09:03:22.036Z,18.30
2018-06-02T09:04:22.089Z,18.30
2018-06-02T09:05:22.106Z,18.30
2018-06-02T09:06:22.018Z,18.30
2018-06-02T09:07:22.053Z,18.30
2018-06-02T09:08:21.976Z,18.30
2018-06-02T09:09:22.030Z,18.30
2018-06-02T09:10:22.077Z,20.10
2018-06-02T09:11:22.082Z,20.10
2018-06-02T09:12:22.084Z,20.10
2018-06-02T09:13:22.042Z,20.10
2018-06-02T09:14:22.081Z,20.10
2018-06-02T09:15:22.065Z,20.10
2018-06-02T09:16:22.143Z,20.10
2018-06-02T09:17:22.104Z,20.10
2018-06-02T09:18:22.105Z,20.10
2018-06-02T09:19:22.008Z,20.10
2018-06-02T09:20:22.033Z,23.30
2018-06-02T09:21:22.143Z,23.30
2018-06-02T09:22:22.108Z,23.30
2018-06-02T09:23:22.068Z,23.30
2018-06-02T09:24:22.142Z,23.30
2018-06-02T09:25:22.129Z,23.30
2018-06-02T09:26:22.081Z,23.30
2018-06-02T09:27:22.142Z,23.30
2018-06-02T09:28:22.016Z,23.30
2018-06-02T09:29:22.113Z,23.30
2018-06-02T09:30:22.107Z,24.20
2018-06-02T09:31:22.015Z,24.20
2018-06-02T09:32:22.113Z,24.20
2018-06-02T09:33:22.092Z,24.20
2018-06-02T09:34:22.165Z,24.20
2018-06-02T09:35:22.126Z,24.20
2018-06-02T09:36:22.117Z,24.20
2018-06-02T09:37:22.080Z,24.20
2018-06-02T09:38:22.122Z,24.20
2018-06-02T09:39:22.026Z,24.20
2018-06-02T09:40:22.024Z,26.00
2018-06-02T09:41:22.040Z,26.00
2018-06-02T09:42:22.115Z,26.00
2018-06-02T09:43:22.080Z,26.00
2018-06-02T09:44:22.112Z,26.00
2018-06-02T09:45:22.066Z,26.00
2018-06-02T09:46:22.115Z,26.00
2018-06-02T09:47:22.117Z,26.00
2018-06-02T09:48:22.030Z,26.00
2018-06-02T09:49:22.036Z,26.00
2018-06-02T09:50:22.074Z,21.80
2018-06-02T09:51:22.035Z,21.80
2018-06-02T09:52:22.074Z,21.80
2018-06-02T09:53:22.073Z,21.80
2018-06-02T09:54:22.052Z,21.80
2018-06-02T09:55:22.058Z,21.80
2018-06-02T09:56:22.119Z,21.80
2018-06-02T09:57:22.126Z,21.80
2018-06-02T09:58:22.051Z,21.80
2018-06-02T09:59:22.075Z,21.80
2018-06-02T10:00:22.132Z,18.20
2018-06-02T10:01:22.075Z,18.20
2018-06-02T10:02:22.112Z,18.20
2018-06-02T10:03:22.169Z,18.20
2018-06-02T10:04:22.108Z,18.20
2018-06-02T10:05:22.112Z,18.20
2018-06-02T10:06:22.134Z,18.20
2018-06-02T10:07:22.115Z,18.20
2018-06-02T10:08:22.137Z,18.20
2018-06-02T10:09:22.167Z,18.20
2018-06-02T10:10:22.171Z,18.99
2018-06-02T10:11:22.138Z,18.99
2018-06-02T10:12:22.063Z,18.99
2018-06-02T10:13:22.138Z,18.99
2018-06-02T10:14:22.146Z,18.99
2018-06-02T10:15:22.141Z,18.99
2018-06-02T10:16:22.129Z,18.99
2018-06-02T10:17:22.048Z,18.99
2018-06-02T10:18:22.207Z,18.99
2018-06-02T10:19:22.083Z,18.99
2018-06-02T10:20:22.187Z,15.90
2018-06-02T10:21:22.174Z,15.90
2018-06-02T10:22:22.111Z,15.90
2018-06-02T10:23:22.176Z,15.90
2018-06-02T10:24:22.114Z,15.90
2018-06-02T10:25:22.070Z,15.90
2018-06-02T10:26:22.152Z,15.90
2018-06-02T10:27:22.176Z,15.90
2018-06-02T10:28:22.091Z,15.90
2018-06-02T10:29:22.094Z,15.90
2018-06-02T10:30:22.127Z,14.70
2018-06-02T10:31:22.180Z,14.70
2018-06-02T10:32:22.213Z,14.70
2018-06-02T10:33:22.189Z,14.70
2018-06-02T10:34:22.127Z,14.70
2018-06-02T10:35:22.243Z,14.70
2018-06-02T10:36:22.159Z,14.70
2018-06-02T10:37:22.190Z,14.70
2018-06-02T10:38:22.117Z,14.70
2018-06-02T10:39:22.190Z,14.70
2018-06-02T10:40:22.160Z,13.90
2018-06-02T10:41:22.186Z,13.90
2018-06-02T10:42:22.130Z,13.90
2018-06-02T10:43:22.199Z,13.90
2018-06-02T10:44:22.232Z,13.90
2018-06-02T10:45:22.186Z,13.90
2018-06-02T10:46:22.167Z,13.90
2018-06-02T10:47:22.160Z,13.90
2018-06-02T10:48:22.200Z,13.90
2018-06-02T10:49:22.106Z,13.90
2018-06-02T10:50:22.194Z,13.20
2018-06-02T10:51:22.087Z,13.20
2018-06-02T10:52:22.189Z,13.20
2018-06-02T10:53:22.131Z,13.20
2018-06-02T10:54:22.108Z,13.20
2018-06-02T10:55:22.201Z,13.20
2018-06-02T10:56:22.208Z,13.20
2018-06-02T10:57:22.168Z,13.20
2018-06-02T10:58:22.187Z,13.20
2018-06-02T10:59:22.193Z,13.20
2018-06-02T11:00:22.106Z,14.90
2018-06-02T11:01:22.183Z,14.90
2018-06-02T11:02:22.112Z,14.90
2018-06-02T11:03:22.109Z,14.90
2018-06-02T11:04:22.110Z,14.90
2018-06-02T11:05:22.178Z,14.90
2018-06-02T11:06:22.175Z,14.90
2018-06-02T11:07:22.177Z,14.90
2018-06-02T11:08:22.178Z,14.90
2018-06-02T11:09:22.116Z,14.90
2018-06-02T11:10:22.181Z,14.90
2018-06-02T11:11:22.170Z,14.80
2018-06-02T11:12:22.104Z,14.80
2018-06-02T11:13:22.142Z,14.80
2018-06-02T11:14:22.154Z,14.80
2018-06-02T11:15:22.174Z,14.80
2018-06-02T11:16:22.144Z,14.80
2018-06-02T11:17:22.103Z,14.80
2018-06-02T11:18:22.091Z,14.80
2018-06-02T11:19:22.176Z,14.80
2018-06-02T11:20:22.180Z,14.80
2018-06-02T11:21:22.155Z,19.60
2018-06-02T11:22:22.092Z,19.60
2018-06-02T11:23:22.189Z,19.60
2018-06-02T11:24:22.235Z,19.60
2018-06-02T11:25:22.092Z,19.60
2018-06-02T11:26:22.190Z,19.60
2018-06-02T11:27:22.229Z,19.60
2018-06-02T11:28:22.203Z,19.60
2018-06-02T11:29:22.223Z,19.60
2018-06-02T11:30:22.194Z,19.60
2018-06-02T11:31:22.224Z,17.80
2018-06-02T11:32:22.234Z,17.80
2018-06-02T11:33:22.169Z,17.80
2018-06-02T11:34:22.192Z,17.80
2018-06-02T11:35:22.228Z,17.80
2018-06-02T11:36:22.166Z,17.80
2018-06-02T11:37:22.218Z,17.80
2018-06-02T11:38:22.118Z,17.80
2018-06-02T11:39:22.163Z,17.80
2018-06-02T11:40:22.258Z,17.80
2018-06-02T11:41:22.135Z,17.20
2018-06-02T11:42:22.134Z,17.20
2018-06-02T11:43:22.140Z,17.20
2018-06-02T11:44:22.298Z,17.20
2018-06-02T11:45:22.222Z,17.20
2018-06-02T11:46:22.219Z,17.20
2018-06-02T11:47:22.138Z,17.20
2018-06-02T11:48:22.137Z,17.20
2018-06-02T11:49:22.144Z,17.20
2018-06-02T11:50:22.209Z,17.20
2018-06-02T11:51:22.213Z,18.70
2018-06-02T11:52:22.133Z,18.70
2018-06-02T11:53:22.132Z,18.70
2018-06-02T11:54:22.174Z,18.70
2018-06-02T11:55:22.165Z,18.70
2018-06-02T11:56:22.273Z,18.70
2018-06-02T11:57:22.207Z,18.70
2018-06-02T11:58:22.246Z,18.70
2018-06-02T11:59:22.215Z,18.70
2018-06-02T12:00:22.114Z,18.70
2018-06-02T12:01:22.233Z,18.20
2018-06-02T12:02:22.187Z,18.20
2018-06-02T12:03:22.236Z,18.20
2018-06-02T12:04:22.125Z,18.20
2018-06-02T12:05:22.257Z,18.20
2018-06-02T12:06:22.192Z,18.20
2018-06-02T12:07:22.220Z,18.20
2018-06-02T12:08:22.281Z,18.20
2018-06-02T12:09:22.142Z,18.20
2018-06-02T12:10:22.218Z,18.20
2018-06-02T12:11:22.260Z,21.30
2018-06-02T12:12:22.256Z,21.30
2018-06-02T12:13:22.186Z,21.30
2018-06-02T12:14:22.141Z,21.30
2018-06-02T12:15:22.262Z,21.30
2018-06-02T12:16:22.232Z,21.30
2018-06-02T12:17:22.152Z,21.30
2018-06-02T12:18:22.227Z,21.30
2018-06-02T12:19:22.248Z,21.30
2018-06-02T12:20:22.248Z,21.30
2018-06-02T12:21:22.253Z,23.30
2018-06-02T12:22:22.149Z,23.30
2018-06-02T12:23:22.170Z,23.30
2018-06-02T12:24:22.198Z,23.30
2018-06-02T12:25:22.228Z,23.30
2018-06-02T12:26:22.199Z,23.30
2018-06-02T12:27:22.237Z,23.30
2018-06-02T12:28:22.293Z,23.30
2018-06-02T12:29:22.253Z,23.30
2018-06-02T12:30:22.221Z,23.30
2018-06-02T12:31:22.236Z,18.80
2018-06-02T12:32:22.235Z,18.80
2018-06-02T12:33:22.175Z,18.80
2018-06-02T12:34:22.211Z,18.80
2018-06-02T12:35:22.171Z,18.80
2018-06-02T12:36:22.240Z,18.80
2018-06-02T12:37:22.170Z,18.80
2018-06-02T12:38:22.197Z,18.80
2018-06-02T12:39:22.241Z,18.80
2018-06-02T12:40:22.175Z,18.80
2018-06-02T12:41:22.195Z,20.00
2018-06-02T12:42:22.161Z,20.00
2018-06-02T12:43:22.118Z,20.00
2018-06-02T12:44:22.163Z,20.00
2018-06-02T12:45:22.189Z,20.00
2018-06-02T12:46:22.240Z,20.00
2018-06-02T12:47:22.232Z,20.00
2018-06-02T12:48:22.285Z,20.00
2018-06-02T12:49:22.240Z,20.00
2018-06-02T12:50:22.232Z,20.00
2018-06-02T12:51:22.185Z,20.00
2018-06-02T12:52:22.147Z,20.00
2018-06-02T12:53:22.162Z,20.00